Skyline Princess — WDB7684 — position and weather

sailwx.info

Track history (hours):
 
Tides and Currents Weather Stations Pressure Air Temp Water Temp Dewpoint Dewpoint Depression Visibility Wind Speed Wind Dir Waves Ship Positions

Skyline Princess

Owner: Skyline Cruise Lines Inc, Flushing, NY. More information available from US FCC via Universal Licensing System and Coast Guard Vessel Documentation Center.

Last reported at 2018-Apr-20 04:04 UTC. Time now 2018-Apr-20 12:40 UTC.
Position N 40°46' W 073°51'.

MMSI: 366946170.

Date/timePositionNaut miles runAvg speedWind from/ knotsBaromVisibWave heightAir tempDewpointWater temp
2018-Apr-20 04:04N 40°46' W 073°51'0 0.0
2018-Apr-20 03:57N 40°46' W 073°51'2 4.4
2018-Apr-20 03:29N 40°48' W 073°52'510.0
2018-Apr-20 03:00N 40°45' W 073°57'4 8.5
2018-Apr-20 02:30N 40°42' W 074°01'3 5.2
2018-Apr-20 02:00N 40°45' W 074°01'0 0.0
2018-Apr-20 01:30N 40°45' W 074°01'3 5.1
2018-Apr-20 01:00N 40°42' W 074°01'1 1.7
2018-Apr-20 00:30N 40°41' W 074°02'1 2.7
2018-Apr-20 00:00N 40°43' W 074°02'3 6.2
2018-Apr-19 23:30N 40°46' W 074°00'1 2.2
2018-Apr-19 23:00N 40°45' W 074°01'0 0.0
2018-Apr-19 22:30N 40°45' W 074°01'0 0.0
2018-Apr-19 22:00N 40°45' W 074°01'0 1.0
2018-Apr-19 21:30N 40°44' W 074°01'2 4.7
2018-Apr-19 21:00N 40°42' W 074°01'610.4
2018-Apr-19 20:25N 40°47' W 073°56'3 7.9
2018-Apr-19 20:00N 40°47' W 073°52'  
2018-Apr-15 03:33N 40°46' W 073°51'0 3.4
2018-Apr-15 03:29N 40°46' W 073°51'3 6.3
2018-Apr-15 03:00N 40°48' W 073°54'3 5.5
2018-Apr-15 02:30N 40°46' W 073°57'3 6.9
2018-Apr-15 02:00N 40°43' W 073°58'4 7.3
2018-Apr-15 01:30N 40°41' W 074°03'4 7.2
2018-Apr-15 01:00N 40°43' W 073°58'4 6.8
2018-Apr-15 00:29N 40°46' W 073°57'3 6.2
2018-Apr-15 00:00N 40°48' W 073°54'3 5.7
2018-Apr-14 23:28N 40°46' W 073°51'0 0.0
2018-Apr-14 22:23N 40°46' W 073°51'  
Track history (hours):
 
Tides and Currents Weather Stations Pressure Air Temp Water Temp Dewpoint Dewpoint Depression Visibility Wind Speed Wind Dir Waves Ship Positions

Skyline Princess

Owner: Skyline Cruise Lines Inc, Flushing, NY. More information available from US FCC via Universal Licensing System and Coast Guard Vessel Documentation Center.

Last reported at 2018-Apr-20 04:04 UTC. Time now 2018-Apr-20 12:40 UTC.
Position N 40°46' W 073°51'.

MMSI: 366946170.

Date/timePositionNaut miles runAvg speedWind from/ knotsBaromVisibWave heightAir tempDewpointWater temp
2018-Apr-20 04:04N 40°46' W 073°51'0 0.0
2018-Apr-20 03:57N 40°46' W 073°51'2 4.4
2018-Apr-20 03:29N 40°48' W 073°52'510.0
2018-Apr-20 03:00N 40°45' W 073°57'4 8.5
2018-Apr-20 02:30N 40°42' W 074°01'3 5.2
2018-Apr-20 02:00N 40°45' W 074°01'0 0.0
2018-Apr-20 01:30N 40°45' W 074°01'3 5.1
2018-Apr-20 01:00N 40°42' W 074°01'1 1.7
2018-Apr-20 00:30N 40°41' W 074°02'1 2.7
2018-Apr-20 00:00N 40°43' W 074°02'3 6.2
2018-Apr-19 23:30N 40°46' W 074°00'1 2.2
2018-Apr-19 23:00N 40°45' W 074°01'0 0.0
2018-Apr-19 22:30N 40°45' W 074°01'0 0.0
2018-Apr-19 22:00N 40°45' W 074°01'0 1.0
2018-Apr-19 21:30N 40°44' W 074°01'2 4.7
2018-Apr-19 21:00N 40°42' W 074°01'610.4
2018-Apr-19 20:25N 40°47' W 073°56'3 7.9
2018-Apr-19 20:00N 40°47' W 073°52'  
2018-Apr-15 03:33N 40°46' W 073°51'0 3.4
2018-Apr-15 03:29N 40°46' W 073°51'3 6.3
2018-Apr-15 03:00N 40°48' W 073°54'3 5.5
2018-Apr-15 02:30N 40°46' W 073°57'3 6.9
2018-Apr-15 02:00N 40°43' W 073°58'4 7.3
2018-Apr-15 01:30N 40°41' W 074°03'4 7.2
2018-Apr-15 01:00N 40°43' W 073°58'4 6.8
2018-Apr-15 00:29N 40°46' W 073°57'3 6.2
2018-Apr-15 00:00N 40°48' W 073°54'3 5.7
2018-Apr-14 23:28N 40°46' W 073°51'0 0.0
2018-Apr-14 22:23N 40°46' W 073°51'  

Dump ship's entire track history